Terminal Aerodrome Forecast
Issued by NWS

Home | Current Version | Previous Version | Text Only | Print | Product List | Glossary On
Versions: 1 2 3 4 5 6 7 8 9 10 11 12 13 14 15 16 17 18 19 20
849
FTUS42 KGSP 251426 AAB
TAFAND
TAF AMD
KAND 251426Z 2514/2612 27008KT P6SM SCT050
     FM260000 24003KT P6SM SCT250
     FM260900 00000KT 5SM BR FEW250=

USA.gov is the U.S. government's official web portal to all federal, state and local government web resources and services.